Time;durP1;ratioP1;P1;durP2;ratioP2;P2;SDS_P1;SDS_P2;PMS_P1;PMS_P2;Temp;Humidity;BMP_temperature;BMP_pressure;BME280_temperature;BME280_humidity;BME280_pressure;Samples;Min_cycle;Max_cycle;Signal;HPM_P1;HPM_P2
2022/04/03 00:00:40;;;;;;;;;;;0.80;99.90;;;;;;5010133;28;20416;-79
2022/04/03 00:03:06;;;;;;;;;;;0.60;99.90;;;;;;5005362;28;19917;-79
2022/04/03 00:05:38;;;;;;;;;;;0.60;99.90;;;;;;5012396;28;19940;-80
2022/04/03 00:08:07;;;;;;;;;;;0.60;99.90;;;;;;5001594;28;19921;-80
2022/04/03 00:10:33;;;;;;;;;;;0.60;99.90;;;;;;5004701;28;19923;-80
2022/04/03 00:12:58;;;;;;;;;;;0.60;99.90;;;;;;5002292;28;20008;-80
2022/04/03 00:15:24;;;;;;;;;;;0.60;99.90;;;;;;5006651;28;20365;-80
2022/04/03 00:17:50;;;;;;;;;;;0.60;99.90;;;;;;5019084;28;20329;-80
2022/04/03 00:20:16;;;;;;;;;;;0.70;99.90;;;;;;5007790;28;20455;-80
2022/04/03 00:22:47;;;;;;;;;;;0.80;99.90;;;;;;5009420;28;19948;-80
2022/04/03 00:25:13;;;;;;;;;;;0.90;99.90;;;;;;5007136;28;19923;-79
2022/04/03 00:27:39;;;;;;;;;;;0.70;99.90;;;;;;5008262;28;19917;-81
2022/04/03 00:30:05;;;;;;;;;;;0.80;99.90;;;;;;5021887;28;19921;-81
2022/04/03 00:32:31;;;;;;;;;;;0.80;99.90;;;;;;5006582;28;19923;-80
2022/04/03 00:34:56;;;;;;;;;;;0.70;99.90;;;;;;5013859;28;20004;-82
2022/04/03 00:37:22;;;;;;;;;;;0.70;99.90;;;;;;5002593;28;19975;-82
2022/04/03 00:39:47;;;;;;;;;;;0.70;99.90;;;;;;5019282;28;20293;-82
2022/04/03 00:42:13;;;;;;;;;;;0.60;99.90;;;;;;5010093;28;20339;-81
2022/04/03 00:44:38;;;;;;;;;;;2.30;99.90;;;;;;5011774;28;20292;-80
2022/04/03 00:47:04;;;;;;;;;;;0.70;99.90;;;;;;5004134;28;19944;-81
2022/04/03 00:49:30;;;;;;;;;;;0.50;99.90;;;;;;5018567;28;19921;-81
2022/04/03 00:51:56;;;;;;;;;;;0.50;99.90;;;;;;5001915;28;20324;-81
2022/04/03 00:54:22;;;;;;;;;;;0.50;99.90;;;;;;5013725;28;19922;-81
2022/04/03 00:56:48;;;;;;;;;;;0.50;99.90;;;;;;5026175;28;19924;-81
2022/04/03 00:59:14;;;;;;;;;;;1.30;99.90;;;;;;5018215;28;19925;-80
2022/04/03 01:01:44;;;;;;;;;;;0.50;99.90;;;;;;5004563;28;20380;-80
2022/04/03 01:04:10;;;;;;;;;;;0.50;99.90;;;;;;4999335;28;19970;-80
2022/04/03 01:06:35;;;;;;;;;;;0.50;99.90;;;;;;5001038;28;19921;-80
2022/04/03 01:09:02;;;;;;;;;;;0.50;99.90;;;;;;5006245;28;19921;-81
2022/04/03 01:11:28;;;;;;;;;;;0.50;99.90;;;;;;5025153;28;19924;-80
2022/04/03 01:13:53;;;;;;;;;;;0.40;99.90;;;;;;5000455;28;20373;-80
2022/04/03 01:16:19;;;;;;;;;;;0.40;99.90;;;;;;5018597;28;19924;-80
2022/04/03 01:18:45;;;;;;;;;;;2.50;99.90;;;;;;5003779;28;19924;-81
2022/04/03 01:21:11;;;;;;;;;;;0.90;99.90;;;;;;5003583;28;20285;-80
2022/04/03 01:23:37;;;;;;;;;;;0.30;99.90;;;;;;5005125;28;19971;-80
2022/04/03 01:26:03;;;;;;;;;;;0.30;99.90;;;;;;5004599;28;20307;-80
2022/04/03 01:28:28;;;;;;;;;;;0.30;99.90;;;;;;5021674;28;20368;-80
2022/04/03 01:30:54;;;;;;;;;;;0.30;99.90;;;;;;5023306;28;19952;-80
2022/04/03 01:33:20;;;;;;;;;;;0.50;99.90;;;;;;5002077;28;19925;-80
2022/04/03 01:35:46;;;;;;;;;;;0.50;99.90;;;;;;5005763;28;19917;-81
2022/04/03 01:38:11;;;;;;;;;;;0.30;99.90;;;;;;5020728;28;19917;-80
2022/04/03 01:40:37;;;;;;;;;;;0.30;99.90;;;;;;5008679;28;19971;-81
2022/04/03 01:43:04;;;;;;;;;;;0.20;99.90;;;;;;5010329;28;19917;-80
2022/04/03 01:45:29;;;;;;;;;;;0.20;99.90;;;;;;5004970;28;19932;-80
2022/04/03 01:47:55;;;;;;;;;;;0.50;99.90;;;;;;5001729;28;19921;-80
2022/04/03 01:50:20;;;;;;;;;;;0.20;99.90;;;;;;4999938;28;19921;-80
2022/04/03 01:52:46;;;;;;;;;;;0.20;99.90;;;;;;5013635;28;19917;-80
2022/04/03 01:55:11;;;;;;;;;;;0.20;99.90;;;;;;4996929;28;19929;-80
2022/04/03 01:57:38;;;;;;;;;;;0.20;99.90;;;;;;5012418;28;19925;-80
2022/04/03 02:00:06;;;;;;;;;;;0.10;99.90;;;;;;5001325;28;19925;-81
2022/04/03 02:02:32;;;;;;;;;;;0.20;99.90;;;;;;5003077;28;20026;-80
2022/04/03 02:04:58;;;;;;;;;;;0.20;99.90;;;;;;5001946;28;20391;-80
2022/04/03 02:07:24;;;;;;;;;;;0.20;99.90;;;;;;4999799;28;19917;-80
2022/04/03 02:09:50;;;;;;;;;;;0.20;99.90;;;;;;5010204;28;20300;-80
2022/04/03 02:12:15;;;;;;;;;;;0.30;99.90;;;;;;5004496;28;19923;-80
2022/04/03 02:14:41;;;;;;;;;;;0.30;99.90;;;;;;5006203;28;20542;-80
2022/04/03 02:17:07;;;;;;;;;;;0.70;99.90;;;;;;4997377;28;20459;-80
2022/04/03 02:19:32;;;;;;;;;;;0.90;99.90;;;;;;5011482;28;20314;-80
2022/04/03 02:21:58;;;;;;;;;;;0.30;99.90;;;;;;5005782;28;19917;-80
2022/04/03 02:24:24;;;;;;;;;;;0.30;99.90;;;;;;5009921;28;19963;-82
2022/04/03 02:26:50;;;;;;;;;;;0.30;99.90;;;;;;5006127;28;19924;-80
2022/04/03 02:29:15;;;;;;;;;;;0.40;99.90;;;;;;5018700;28;19960;-80
2022/04/03 02:31:42;;;;;;;;;;;0.70;99.90;;;;;;5003051;28;19917;-81
2022/04/03 02:34:08;;;;;;;;;;;0.40;99.90;;;;;;5005707;28;19928;-81
2022/04/03 02:36:34;;;;;;;;;;;0.50;99.90;;;;;;5002793;28;19921;-80
2022/04/03 02:39:00;;;;;;;;;;;0.50;99.90;;;;;;5002659;28;19924;-80
2022/04/03 02:41:25;;;;;;;;;;;0.50;99.90;;;;;;4997146;28;19922;-81
2022/04/03 02:43:51;;;;;;;;;;;0.60;99.90;;;;;;5007351;28;19971;-80
2022/04/03 02:46:16;;;;;;;;;;;0.70;99.90;;;;;;5013797;28;20003;-80
2022/04/03 02:48:42;;;;;;;;;;;0.70;99.90;;;;;;5005768;28;19971;-80
2022/04/03 02:51:08;;;;;;;;;;;0.90;99.90;;;;;;5029728;28;19923;-80
2022/04/03 02:53:33;;;;;;;;;;;0.70;99.90;;;;;;5010179;28;20320;-80
2022/04/03 02:55:59;;;;;;;;;;;0.90;99.90;;;;;;5005827;28;20288;-80
2022/04/03 02:58:25;;;;;;;;;;;0.80;99.90;;;;;;5014681;28;19925;-82
2022/04/03 03:00:50;;;;;;;;;;;1.20;99.90;;;;;;5007462;28;20004;-80
2022/04/03 03:03:16;;;;;;;;;;;0.90;99.90;;;;;;5006053;28;19923;-80
2022/04/03 03:05:42;;;;;;;;;;;0.90;99.90;;;;;;5000391;28;19982;-80
2022/04/03 03:08:08;;;;;;;;;;;2.50;99.90;;;;;;5016415;28;19960;-80
2022/04/03 03:10:34;;;;;;;;;;;0.90;99.90;;;;;;5004952;28;19957;-80
2022/04/03 03:12:59;;;;;;;;;;;0.90;99.90;;;;;;5022160;28;19921;-80
2022/04/03 03:15:25;;;;;;;;;;;1.00;99.90;;;;;;5013492;28;19984;-80
2022/04/03 03:17:50;;;;;;;;;;;1.10;99.90;;;;;;5006201;28;19955;-80
2022/04/03 03:20:16;;;;;;;;;;;1.10;99.90;;;;;;5025426;28;20277;-80
2022/04/03 03:22:42;;;;;;;;;;;1.20;99.90;;;;;;5007645;28;20039;-81
2022/04/03 03:25:08;;;;;;;;;;;1.30;99.90;;;;;;4998119;28;19917;-82
2022/04/03 03:27:35;;;;;;;;;;;1.30;99.90;;;;;;5004472;28;19952;-80
2022/04/03 03:30:00;;;;;;;;;;;1.40;99.90;;;;;;5005844;28;20795;-80
2022/04/03 03:32:26;;;;;;;;;;;1.90;99.90;;;;;;4995637;28;20011;-80
2022/04/03 03:34:52;;;;;;;;;;;1.60;99.90;;;;;;5003539;28;19921;-80
2022/04/03 03:37:18;;;;;;;;;;;1.90;99.90;;;;;;4998558;28;19922;-80
2022/04/03 03:39:43;;;;;;;;;;;3.30;99.90;;;;;;5003459;28;19924;-81
2022/04/03 03:42:09;;;;;;;;;;;1.80;99.90;;;;;;5010178;28;20300;-81
2022/04/03 03:44:35;;;;;;;;;;;1.80;99.90;;;;;;5004729;28;19924;-80
2022/04/03 03:47:00;;;;;;;;;;;2.10;99.90;;;;;;5008520;28;20419;-81
2022/04/03 03:49:26;;;;;;;;;;;1.70;99.90;;;;;;5006351;28;19917;-81
2022/04/03 03:51:52;;;;;;;;;;;1.90;99.90;;;;;;5013478;28;19922;-81
2022/04/03 03:54:18;;;;;;;;;;;3.00;99.90;;;;;;5005612;28;19922;-79
2022/04/03 03:56:44;;;;;;;;;;;1.60;99.90;;;;;;5008791;28;19917;-80
2022/04/03 03:59:10;;;;;;;;;;;1.50;99.90;;;;;;5002337;28;19924;-79
2022/04/03 04:01:35;;;;;;;;;;;1.50;99.90;;;;;;4997356;28;19922;-81
2022/04/03 04:04:01;;;;;;;;;;;1.40;99.90;;;;;;5009621;28;19917;-80
2022/04/03 04:06:26;;;;;;;;;;;1.30;99.90;;;;;;5005623;28;19917;-80
2022/04/03 04:08:52;;;;;;;;;;;1.30;99.90;;;;;;5012146;28;19974;-81
2022/04/03 04:11:18;;;;;;;;;;;1.20;99.90;;;;;;5019873;28;20012;-81
2022/04/03 04:13:43;;;;;;;;;;;1.20;99.90;;;;;;5006561;28;20269;-81
2022/04/03 04:16:10;;;;;;;;;;;1.20;99.90;;;;;;5011436;28;19924;-80
2022/04/03 04:18:36;;;;;;;;;;;1.10;99.90;;;;;;5026114;28;19921;-81
2022/04/03 04:21:03;;;;;;;;;;;1.40;99.90;;;;;;5011993;28;19924;-80
2022/04/03 04:23:29;;;;;;;;;;;0.90;99.90;;;;;;5004850;28;19984;-80
2022/04/03 04:25:55;;;;;;;;;;;0.90;99.90;;;;;;5003015;28;19928;-81
2022/04/03 04:28:21;;;;;;;;;;;0.90;99.90;;;;;;5004969;28;20331;-80
2022/04/03 04:30:46;;;;;;;;;;;1.40;99.90;;;;;;5020861;28;19921;-80
2022/04/03 04:33:12;;;;;;;;;;;0.80;99.90;;;;;;5005902;28;19918;-81
2022/04/03 04:35:37;;;;;;;;;;;0.80;99.90;;;;;;5015556;28;20396;-80
2022/04/03 04:38:03;;;;;;;;;;;0.80;99.90;;;;;;4995667;28;19924;-80
2022/04/03 04:40:29;;;;;;;;;;;0.80;99.90;;;;;;4997326;28;19949;-80
2022/04/03 04:42:57;;;;;;;;;;;0.80;99.90;;;;;;5010153;28;19921;-80
2022/04/03 04:45:25;;;;;;;;;;;0.80;99.90;;;;;;5003814;28;19917;-81
2022/04/03 04:47:51;;;;;;;;;;;0.80;99.90;;;;;;5002576;28;19917;-81
2022/04/03 04:50:18;;;;;;;;;;;0.70;99.90;;;;;;5004609;28;19924;-80
2022/04/03 04:52:44;;;;;;;;;;;0.70;99.90;;;;;;5005764;28;20542;-80
2022/04/03 04:55:09;;;;;;;;;;;0.70;99.90;;;;;;5013526;28;19921;-80
2022/04/03 04:57:35;;;;;;;;;;;0.60;99.90;;;;;;4997019;28;19922;-80
2022/04/03 05:00:02;;;;;;;;;;;0.60;99.90;;;;;;5026579;28;20362;-80
2022/04/03 05:02:28;;;;;;;;;;;0.60;99.90;;;;;;5001468;28;19953;-80
2022/04/03 05:04:54;;;;;;;;;;;0.50;99.90;;;;;;5004379;28;20368;-81
2022/04/03 05:07:19;;;;;;;;;;;0.50;99.90;;;;;;5015597;28;19939;-81
2022/04/03 05:09:46;;;;;;;;;;;0.70;99.90;;;;;;5027094;28;20011;-80
2022/04/03 05:12:12;;;;;;;;;;;0.50;99.90;;;;;;5001566;28;19924;-80
2022/04/03 05:14:37;;;;;;;;;;;0.40;99.90;;;;;;5005671;28;19926;-80
2022/04/03 05:17:04;;;;;;;;;;;0.40;99.90;;;;;;5023818;28;19917;-80
2022/04/03 05:19:30;;;;;;;;;;;0.40;99.90;;;;;;5018467;28;19988;-80
2022/04/03 05:21:55;;;;;;;;;;;0.40;99.90;;;;;;5016458;28;20014;-80
2022/04/03 05:24:21;;;;;;;;;;;0.40;99.90;;;;;;5004405;28;19917;-81
2022/04/03 05:26:47;;;;;;;;;;;0.40;99.90;;;;;;4998484;28;19921;-80
2022/04/03 05:29:12;;;;;;;;;;;0.40;99.90;;;;;;5013162;28;20008;-79
2022/04/03 05:31:39;;;;;;;;;;;0.40;99.90;;;;;;5027283;28;20005;-80
2022/04/03 05:34:04;;;;;;;;;;;0.40;99.90;;;;;;5017991;28;19921;-79
2022/04/03 05:36:30;;;;;;;;;;;0.40;99.90;;;;;;4999427;28;19924;-80
2022/04/03 05:38:55;;;;;;;;;;;0.40;99.90;;;;;;5012464;28;19917;-80
2022/04/03 05:41:21;;;;;;;;;;;0.80;99.90;;;;;;5005808;28;19925;-80
2022/04/03 05:43:46;;;;;;;;;;;0.40;99.90;;;;;;5005373;28;20282;-80
2022/04/03 05:46:12;;;;;;;;;;;0.50;99.90;;;;;;5001464;28;20366;-80
2022/04/03 05:48:37;;;;;;;;;;;0.60;99.90;;;;;;5006466;28;20007;-81
2022/04/03 05:51:03;;;;;;;;;;;1.00;99.90;;;;;;5027222;28;19924;-80
2022/04/03 05:53:29;;;;;;;;;;;0.70;99.90;;;;;;5021121;28;19967;-80
2022/04/03 05:55:55;;;;;;;;;;;0.70;99.90;;;;;;5000654;28;20005;-80
2022/04/03 05:58:20;;;;;;;;;;;0.70;99.90;;;;;;5010207;28;20355;-81
2022/04/03 06:00:46;;;;;;;;;;;0.80;99.90;;;;;;5001113;28;19918;-81
2022/04/03 06:03:11;;;;;;;;;;;0.80;99.90;;;;;;5002485;28;19918;-81
2022/04/03 06:05:40;;;;;;;;;;;0.90;99.90;;;;;;5004352;28;20376;-81
2022/04/03 06:08:06;;;;;;;;;;;0.90;99.90;;;;;;4999635;28;20308;-80
2022/04/03 06:10:34;;;;;;;;;;;1.10;99.90;;;;;;5005337;28;19917;-80
2022/04/03 06:13:03;;;;;;;;;;;1.40;99.90;;;;;;5004513;28;20272;-80
2022/04/03 06:15:37;;;;;;;;;;;1.20;99.90;;;;;;4999714;28;20444;-80
2022/04/03 06:18:06;;;;;;;;;;;1.30;99.90;;;;;;5027973;28;19925;-80
2022/04/03 06:20:32;;;;;;;;;;;1.40;99.90;;;;;;5002252;28;19924;-81
2022/04/03 06:22:59;;;;;;;;;;;1.50;99.90;;;;;;5019500;28;20378;-80
2022/04/03 06:25:25;;;;;;;;;;;1.60;99.90;;;;;;5009023;28;19956;-80
2022/04/03 06:27:52;;;;;;;;;;;1.60;99.90;;;;;;5002887;28;20392;-80
2022/04/03 06:30:17;;;;;;;;;;;1.60;99.90;;;;;;5005791;28;20001;-80
2022/04/03 06:32:43;;;;;;;;;;;1.70;99.90;;;;;;5012648;28;20395;-80
2022/04/03 06:35:09;;;;;;;;;;;1.90;99.90;;;;;;5026234;28;19952;-80
2022/04/03 06:37:35;;;;;;;;;;;1.90;99.90;;;;;;5026578;28;20026;-80
2022/04/03 06:40:00;;;;;;;;;;;2.10;99.90;;;;;;4998632;28;20269;-80
2022/04/03 06:42:28;;;;;;;;;;;2.70;99.90;;;;;;5007777;28;19924;-80
2022/04/03 06:44:54;;;;;;;;;;;2.30;99.90;;;;;;4998255;28;19917;-80
2022/04/03 06:47:19;;;;;;;;;;;2.30;99.90;;;;;;4999124;28;19983;-81
2022/04/03 06:49:45;;;;;;;;;;;2.40;99.90;;;;;;5006252;28;19917;-81
2022/04/03 06:52:11;;;;;;;;;;;2.40;99.90;;;;;;5010762;28;19960;-81
2022/04/03 06:54:37;;;;;;;;;;;2.50;99.90;;;;;;5014413;28;19925;-80
2022/04/03 06:57:03;;;;;;;;;;;2.80;99.90;;;;;;5029032;28;19999;-80
2022/04/03 06:59:29;;;;;;;;;;;3.10;99.90;;;;;;5000741;28;19925;-81
2022/04/03 07:01:55;;;;;;;;;;;3.50;99.90;;;;;;5006885;28;19920;-82
2022/04/03 07:04:21;;;;;;;;;;;3.70;99.90;;;;;;5003395;28;20001;-79
2022/04/03 07:06:46;;;;;;;;;;;4.00;99.90;;;;;;5006361;28;20266;-80
2022/04/03 07:09:12;;;;;;;;;;;4.80;99.90;;;;;;5015862;28;20378;-79
2022/04/03 07:11:38;;;;;;;;;;;5.40;99.90;;;;;;5008045;28;19925;-80
2022/04/03 07:14:03;;;;;;;;;;;5.40;99.90;;;;;;5010056;28;19928;-81
2022/04/03 07:16:29;;;;;;;;;;;5.80;99.90;;;;;;5007287;28;19980;-82
2022/04/03 07:18:54;;;;;;;;;;;6.30;99.90;;;;;;5010971;28;19924;-81
2022/04/03 07:21:20;;;;;;;;;;;6.90;99.90;;;;;;5004108;28;20365;-81
2022/04/03 07:23:46;;;;;;;;;;;7.40;99.90;;;;;;5018824;28;20297;-82
2022/04/03 07:26:11;;;;;;;;;;;7.30;99.90;;;;;;5023724;28;20349;-81
2022/04/03 07:28:37;;;;;;;;;;;7.00;99.90;;;;;;5004225;28;19922;-79
2022/04/03 07:31:03;;;;;;;;;;;6.90;99.90;;;;;;5000101;28;19991;-80
2022/04/03 07:33:29;;;;;;;;;;;6.90;99.90;;;;;;5015416;28;19960;-78
2022/04/03 07:35:54;;;;;;;;;;;7.30;99.90;;;;;;5004445;28;19933;-79
2022/04/03 07:38:20;;;;;;;;;;;7.50;99.90;;;;;;5012086;28;19971;-79
2022/04/03 07:40:46;;;;;;;;;;;7.90;99.90;;;;;;5001228;28;19920;-79
2022/04/03 07:43:12;;;;;;;;;;;8.10;99.90;;;;;;5008049;28;20401;-79
2022/04/03 07:45:37;;;;;;;;;;;8.30;99.90;;;;;;5004990;28;20016;-80
2022/04/03 07:48:03;;;;;;;;;;;8.80;99.90;;;;;;5008026;28;20007;-79
2022/04/03 07:50:29;;;;;;;;;;;8.80;99.90;;;;;;5023071;28;19921;-80
2022/04/03 07:52:54;;;;;;;;;;;9.10;99.90;;;;;;5029621;28;19925;-78
2022/04/03 07:55:20;;;;;;;;;;;9.30;99.90;;;;;;5007714;28;20423;-79
2022/04/03 07:57:45;;;;;;;;;;;9.50;99.90;;;;;;5006869;28;19925;-80
2022/04/03 08:00:13;;;;;;;;;;;9.60;99.90;;;;;;5014958;28;19917;-80
2022/04/03 08:02:39;;;;;;;;;;;9.80;99.90;;;;;;5005396;28;20000;-80
2022/04/03 08:05:05;;;;;;;;;;;10.10;99.90;;;;;;5001196;28;19918;-80
2022/04/03 08:07:35;;;;;;;;;;;10.10;99.90;;;;;;5004905;28;19946;-80
2022/04/03 08:10:01;;;;;;;;;;;10.20;99.90;;;;;;5004590;28;19921;-80
2022/04/03 08:12:26;;;;;;;;;;;10.10;99.90;;;;;;5001703;28;20450;-80
2022/04/03 08:14:52;;;;;;;;;;;10.30;99.90;;;;;;5017732;28;20266;-80
2022/04/03 08:17:18;;;;;;;;;;;10.30;99.90;;;;;;5019997;28;19984;-80
2022/04/03 08:19:43;;;;;;;;;;;10.60;99.90;;;;;;5007385;28;20024;-80
2022/04/03 08:22:09;;;;;;;;;;;10.80;99.90;;;;;;4994452;28;19925;-79
2022/04/03 08:24:34;;;;;;;;;;;10.80;99.90;;;;;;4994317;28;20297;-80
2022/04/03 08:27:00;;;;;;;;;;;10.80;99.90;;;;;;5003084;28;19920;-80
2022/04/03 08:29:26;;;;;;;;;;;10.90;99.90;;;;;;5009789;28;19917;-80
2022/04/03 08:31:51;;;;;;;;;;;10.80;99.90;;;;;;5008205;28;20271;-80
2022/04/03 08:34:17;;;;;;;;;;;11.00;99.90;;;;;;4998163;28;19921;-78
2022/04/03 08:36:43;;;;;;;;;;;10.90;99.90;;;;;;5012412;28;19921;-77
2022/04/03 08:39:09;;;;;;;;;;;11.00;99.90;;;;;;5014383;28;19925;-78
2022/04/03 08:41:35;;;;;;;;;;;11.30;99.90;;;;;;5012196;28;19921;-78
2022/04/03 08:44:01;;;;;;;;;;;11.20;99.90;;;;;;5002511;28;19921;-79
2022/04/03 08:46:29;;;;;;;;;;;10.70;99.90;;;;;;4999717;28;19928;-79
2022/04/03 08:48:55;;;;;;;;;;;10.80;99.90;;;;;;5004665;28;20322;-79
2022/04/03 08:51:22;;;;;;;;;;;10.90;99.90;;;;;;5000261;28;19917;-79
2022/04/03 08:53:48;;;;;;;;;;;11.30;99.90;;;;;;4998466;28;19917;-79
2022/04/03 08:56:14;;;;;;;;;;;12.00;99.90;;;;;;4996873;28;19964;-79
2022/04/03 08:58:39;;;;;;;;;;;12.10;99.90;;;;;;4993358;28;19929;-80
2022/04/03 09:01:05;;;;;;;;;;;12.10;99.90;;;;;;4993625;28;19996;-80
2022/04/03 09:03:31;;;;;;;;;;;11.50;99.90;;;;;;4987658;28;19917;-79
2022/04/03 09:06:12;;;;;;;;;;;10.50;99.90;;;;;;4988248;28;19918;-79
2022/04/03 09:08:38;;;;;;;;;;;10.00;99.90;;;;;;5003385;28;19921;-79
2022/04/03 09:11:07;;;;;;;;;;;9.40;99.90;;;;;;5019154;28;19939;-79
2022/04/03 09:13:37;;;;;;;;;;;9.10;99.90;;;;;;4991315;28;20008;-77
2022/04/03 09:16:04;;;;;;;;;;;9.50;99.90;;;;;;4999924;28;19964;-79
2022/04/03 09:18:51;;;;;;;;;;;10.40;99.90;;;;;;4998726;28;19921;-80
2022/04/03 09:21:19;;;;;;;;;;;11.40;99.90;;;;;;4992981;28;19917;-78
2022/04/03 09:24:04;;;;;;;;;;;12.40;99.90;;;;;;5000400;28;19918;-80
2022/04/03 09:26:30;;;;;;;;;;;12.80;99.90;;;;;;4994805;28;20008;-78
2022/04/03 09:29:16;;;;;;;;;;;12.40;99.90;;;;;;5010177;28;19917;-80
2022/04/03 09:31:42;;;;;;;;;;;11.90;99.90;;;;;;4997169;28;19957;-82
2022/04/03 09:34:15;;;;;;;;;;;11.00;99.90;;;;;;5003563;28;19921;-78
2022/04/03 09:36:40;;;;;;;;;;;10.60;99.90;;;;;;5011719;28;19918;-79
2022/04/03 09:39:07;;;;;;;;;;;11.00;99.90;;;;;;4995740;28;19964;-79
2022/04/03 09:41:33;;;;;;;;;;;11.90;99.90;;;;;;5008925;28;20304;-79
2022/04/03 09:43:58;;;;;;;;;;;12.10;99.90;;;;;;4976614;28;19926;-80
2022/04/03 09:46:29;;;;;;;;;;;11.80;99.90;;;;;;5011164;28;19928;-79
2022/04/03 09:48:55;;;;;;;;;;;12.10;99.90;;;;;;5005637;28;19920;-78
2022/04/03 09:51:22;;;;;;;;;;;12.70;99.90;;;;;;5010155;28;19928;-79
2022/04/03 09:53:55;;;;;;;;;;;13.30;99.90;;;;;;4995201;28;19960;-78
2022/04/03 09:56:29;;;;;;;;;;;13.50;98.50;;;;;;5001245;28;19917;-79
2022/04/03 09:58:57;;;;;;;;;;;13.00;98.80;;;;;;5003743;28;19921;-78
2022/04/03 10:01:27;;;;;;;;;;;13.00;99.90;;;;;;5024482;28;19967;-79
2022/04/03 10:03:53;;;;;;;;;;;13.40;98.70;;;;;;5010249;28;19928;-79
2022/04/03 10:06:19;;;;;;;;;;;14.10;98.50;;;;;;5009642;28;19925;-79
2022/04/03 10:08:47;;;;;;;;;;;14.10;97.00;;;;;;5028400;28;19921;-79
2022/04/03 10:11:14;;;;;;;;;;;13.30;94.90;;;;;;4996208;28;19918;-77
2022/04/03 10:13:40;;;;;;;;;;;12.40;94.60;;;;;;5017847;28;20384;-79
2022/04/03 10:16:05;;;;;;;;;;;12.00;96.40;;;;;;5001947;28;19917;-79
2022/04/03 10:18:33;;;;;;;;;;;11.40;98.30;;;;;;5028838;28;19917;-79
2022/04/03 10:20:59;;;;;;;;;;;11.80;99.80;;;;;;4998263;28;20390;-78
2022/04/03 10:23:25;;;;;;;;;;;12.70;99.40;;;;;;4994469;28;20464;-78
2022/04/03 10:25:52;;;;;;;;;;;13.40;98.00;;;;;;5012684;28;19918;-79
2022/04/03 10:28:19;;;;;;;;;;;13.20;96.90;;;;;;4997430;28;19924;-78
2022/04/03 10:30:45;;;;;;;;;;;12.40;97.80;;;;;;5007227;28;20268;-80
2022/04/03 10:33:16;;;;;;;;;;;12.10;99.90;;;;;;5002932;28;19917;-78
2022/04/03 10:35:49;;;;;;;;;;;11.90;99.90;;;;;;5007333;28;19925;-79
2022/04/03 10:38:15;;;;;;;;;;;12.30;99.00;;;;;;5017268;28;19921;-80
2022/04/03 10:40:55;;;;;;;;;;;13.00;98.00;;;;;;5021566;28;19926;-80
2022/04/03 10:43:25;;;;;;;;;;;13.50;95.60;;;;;;5011456;28;20008;-80
2022/04/03 10:45:51;;;;;;;;;;;14.30;96.30;;;;;;5007126;28;19918;-80
2022/04/03 10:48:23;;;;;;;;;;;14.70;94.80;;;;;;5003077;28;19924;-81
2022/04/03 10:50:54;;;;;;;;;;;14.60;93.10;;;;;;5001284;28;20416;-80
2022/04/03 10:53:24;;;;;;;;;;;13.80;94.10;;;;;;4990679;28;19922;-79
2022/04/03 10:56:02;;;;;;;;;;;13.00;94.90;;;;;;5003626;28;19971;-79
2022/04/03 10:58:37;;;;;;;;;;;12.50;95.00;;;;;;5001491;28;20384;-79
2022/04/03 11:01:03;;;;;;;;;;;11.80;95.70;;;;;;5022944;28;19964;-80
2022/04/03 11:03:30;;;;;;;;;;;11.10;99.90;;;;;;4999368;28;19918;-79
2022/04/03 11:05:55;;;;;;;;;;;10.80;99.90;;;;;;5027921;28;20357;-80
2022/04/03 11:08:40;;;;;;;;;;;10.40;99.90;;;;;;5015560;28;19928;-80
2022/04/03 11:11:09;;;;;;;;;;;10.30;99.90;;;;;;4999352;28;19918;-79
2022/04/03 11:13:35;;;;;;;;;;;10.10;99.90;;;;;;5008028;28;19925;-79
2022/04/03 11:16:01;;;;;;;;;;;9.80;99.90;;;;;;5027916;28;19930;-80
2022/04/03 11:20:44;;;;;;;5.88;1.10;;;9.90;99.90;;;;;;5133237;27;20896;-80
2022/04/03 11:23:14;;;;;;;3.10;0.80;;;9.70;99.90;;;;;;5139350;27;20044;-80
2022/04/03 11:25:41;;;;;;;3.45;0.80;;;9.50;99.90;;;;;;5138651;27;20039;-79
2022/04/03 11:28:08;;;;;;;1.77;0.77;;;9.60;99.90;;;;;;5136836;27;20368;-79
2022/04/03 11:30:34;;;;;;;1.42;0.80;;;9.60;99.90;;;;;;5145635;27;20121;-79
2022/04/03 11:33:00;;;;;;;4.10;0.75;;;9.90;99.90;;;;;;5140764;27;20042;-80
2022/04/03 11:35:40;;;;;;;2.40;1.20;;;9.80;99.90;;;;;;5142676;27;20096;-79
2022/04/03 11:38:07;;;;;;;3.60;1.27;;;10.00;99.90;;;;;;5116501;27;20051;-78
2022/04/03 11:40:36;;;;;;;3.85;1.00;;;10.00;99.90;;;;;;5129283;27;20492;-80
2022/04/03 11:43:07;;;;;;;2.33;1.20;;;10.10;99.90;;;;;;5134607;27;20081;-80
2022/04/03 11:45:33;;;;;;;2.88;1.10;;;10.30;99.90;;;;;;5132110;27;20035;-80
2022/04/03 11:48:19;;;;;;;2.20;0.97;;;10.40;99.90;;;;;;5139091;27;20065;-79
2022/04/03 11:50:45;;;;;;;1.73;0.80;;;10.40;99.90;;;;;;5129043;27;20280;-80
2022/04/03 11:53:12;;;;;;;0.60;0.40;;;10.20;99.90;;;;;;5135646;27;20027;-80
2022/04/03 11:55:38;;;;;;;;;;;9.80;99.90;;;;;;5136352;27;20395;-79
2022/04/03 11:58:04;;;;;;;1.35;0.50;;;9.40;99.90;;;;;;5136884;27;19963;-79
2022/04/03 12:00:31;;;;;;;0.65;0.40;;;9.20;99.90;;;;;;5141185;27;20047;-79
2022/04/03 12:02:58;;;;;;;1.48;0.60;;;9.10;99.90;;;;;;5142266;27;20058;-79
2022/04/03 12:05:23;;;;;;;0.60;0.50;;;9.00;99.90;;;;;;5144351;27;20382;-79
2022/04/03 12:07:50;;;;;;;0.73;0.60;;;9.10;99.90;;;;;;5144531;27;20047;-80
2022/04/03 12:10:28;;;;;;;1.88;0.45;;;9.10;99.90;;;;;;5118345;27;20413;-80
2022/04/03 12:12:58;;;;;;;1.42;0.40;;;9.20;99.90;;;;;;5133091;27;20063;-79
2022/04/03 12:15:26;;;;;;;2.35;0.60;;;9.80;99.90;;;;;;5135778;27;20066;-80
2022/04/03 12:17:56;;;;;;;0.82;0.60;;;10.70;99.90;;;;;;5146955;27;20482;-79
2022/04/03 12:20:23;;;;;;;0.43;0.30;;;11.80;99.90;;;;;;5132508;27;20053;-79
2022/04/03 12:22:52;;;;;;;1.17;0.38;;;12.60;99.90;;;;;;5135740;27;20493;-79
2022/04/03 12:25:19;;;;;;;0.43;0.30;;;13.10;99.90;;;;;;5135415;27;20054;-79
2022/04/03 12:27:45;;;;;;;1.63;0.40;;;13.50;99.20;;;;;;5125129;27;20124;-79
2022/04/03 12:30:11;;;;;;;0.52;0.30;;;14.10;98.70;;;;;;5130815;27;20071;-79
2022/04/03 12:32:45;;;;;;;1.55;0.40;;;14.30;96.90;;;;;;5114582;27;20065;-79
2022/04/03 12:35:11;;;;;;;0.90;0.30;;;14.70;97.00;;;;;;5094935;28;20386;-79
2022/04/03 12:37:42;;;;;;;1.95;0.40;;;14.90;95.10;;;;;;5100950;27;20137;-79
2022/04/03 12:40:08;;;;;;;2.95;0.40;;;14.70;95.10;;;;;;5128678;27;20082;-79
2022/04/03 12:42:35;;;;;;;;;;;14.40;95.50;;;;;;5117597;27;20134;-79
2022/04/03 12:45:05;;;;;;;2.38;0.73;;;13.60;97.40;;;;;;5119930;27;19916;-79
2022/04/03 12:47:33;;;;;;;1.60;0.43;;;12.90;99.10;;;;;;5121750;27;20059;-80
2022/04/03 12:50:05;;;;;;;2.13;0.70;;;12.30;99.90;;;;;;5122476;27;20107;-80
2022/04/03 12:52:44;;;;;;;2.67;0.70;;;11.70;99.90;;;;;;5114462;27;20078;-80
2022/04/03 12:55:22;;;;;;;3.15;0.70;;;11.50;99.90;;;;;;5126730;27;20031;-79
2022/04/03 12:58:29;;;;;;;2.78;0.73;;;11.20;99.90;;;;;;5121059;27;20042;-79
2022/04/03 13:01:00;;;;;;;2.47;0.70;;;10.80;99.90;;;;;;5113078;27;20051;-80
2022/04/03 13:03:30;;;;;;;2.22;0.70;;;10.60;99.90;;;;;;5112994;27;20046;-80
2022/04/03 13:06:16;;;;;;;3.65;1.30;;;10.50;99.90;;;;;;5125921;27;20051;-80
2022/04/03 13:08:51;;;;;;;2.35;0.90;;;10.40;99.90;;;;;;5111987;28;20043;-80
2022/04/03 13:11:37;;;;;;;1.85;0.90;;;10.30;99.90;;;;;;5121368;27;20031;-80
2022/04/03 13:14:26;;;;;;;3.00;1.05;;;10.10;99.90;;;;;;5117812;27;20433;-80
2022/04/03 13:16:53;;;;;;;2.05;1.02;;;10.10;99.90;;;;;;5115090;27;20075;-80
2022/04/03 13:19:21;;;;;;;2.97;1.10;;;10.30;99.90;;;;;;5105229;27;20104;-80
2022/04/03 13:21:48;;;;;;;3.00;0.80;;;10.40;99.90;;;;;;5122573;27;20075;-79
2022/04/03 13:24:14;;;;;;;4.10;0.85;;;10.40;99.90;;;;;;5121621;27;20035;-79
2022/04/03 13:26:40;;;;;;;1.30;0.60;;;10.40;99.90;;;;;;5116540;27;20054;-80
2022/04/03 13:29:07;;;;;;;4.45;0.68;;;10.80;99.90;;;;;;5131759;27;20035;-79
2022/04/03 13:31:37;;;;;;;3.10;0.75;;;11.30;99.90;;;;;;5113775;27;20438;-79
2022/04/03 13:34:03;;;;;;;2.05;0.80;;;11.70;99.90;;;;;;5122142;27;20035;-78
2022/04/03 13:36:31;;;;;;;1.95;0.50;;;11.90;99.90;;;;;;5131104;27;20062;-79
2022/04/03 13:38:56;;;;;;;2.15;0.70;;;11.70;99.90;;;;;;5125173;27;20118;-79
2022/04/03 13:41:22;;;;;;;1.40;0.80;;;11.30;99.90;;;;;;5114415;27;20111;-78
2022/04/03 13:43:48;;;;;;;2.08;0.68;;;10.90;99.90;;;;;;5130188;27;20239;-79
2022/04/03 13:46:14;;;;;;;3.08;0.90;;;10.70;99.90;;;;;;5113358;27;20046;-80
2022/04/03 13:48:40;;;;;;;;;;;10.60;99.90;;;;;;5119715;27;20042;-80
2022/04/03 13:51:24;;;;;;;1.30;1.00;;;10.50;99.90;;;;;;5127091;27;19915;-80
2022/04/03 13:53:49;;;;;;;3.45;1.00;;;10.70;99.90;;;;;;5132180;27;20035;-79
2022/04/03 13:56:18;;;;;;;2.42;0.90;;;10.50;99.90;;;;;;5114382;27;20046;-79
2022/04/03 13:58:44;;;;;;;2.28;0.90;;;10.70;99.90;;;;;;5112952;27;20095;-80
2022/04/03 14:01:10;;;;;;;1.13;0.50;;;10.90;99.90;;;;;;5120847;27;20031;-79
2022/04/03 14:03:36;;;;;;;5.30;0.88;;;10.90;99.90;;;;;;5121266;27;20104;-79
2022/04/03 14:06:03;;;;;;;3.15;0.70;;;10.80;99.90;;;;;;5112385;28;20115;-79
2022/04/03 14:08:29;;;;;;;2.50;0.70;;;10.70;99.90;;;;;;5121130;27;20031;-80